createdAt,value
2023-12-18T00:00:00.836Z,110.40
2023-12-18T00:02:30.773Z,121.80
2023-12-18T00:04:59.286Z,134.00
2023-12-18T00:07:28.512Z,118.60
2023-12-18T00:09:56.841Z,112.60
2023-12-18T00:12:25.388Z,161.00
2023-12-18T00:14:53.855Z,136.30
2023-12-18T00:17:22.263Z,123.80
2023-12-18T00:19:52.554Z,125.60
2023-12-18T00:22:20.950Z,101.20
2023-12-18T00:24:49.392Z,99.90
2023-12-18T00:27:18.036Z,110.20
2023-12-18T00:29:46.358Z,107.80
2023-12-18T00:32:14.900Z,95.50
2023-12-18T00:34:43.519Z,81.50
2023-12-18T00:37:12.503Z,75.40
2023-12-18T00:39:40.956Z,72.70
2023-12-18T00:42:09.648Z,78.40
2023-12-18T00:44:38.090Z,78.10
2023-12-18T00:47:06.746Z,77.20
2023-12-18T00:49:35.225Z,70.00
2023-12-18T00:52:03.891Z,76.30
2023-12-18T00:54:32.338Z,62.70
2023-12-18T00:57:00.831Z,60.10
2023-12-18T00:59:29.312Z,64.60
2023-12-18T01:01:57.689Z,62.80
2023-12-18T01:04:26.153Z,62.40
2023-12-18T01:06:54.493Z,61.80
2023-12-18T01:09:23.553Z,69.10
2023-12-18T01:11:52.422Z,70.80
2023-12-18T01:14:20.791Z,71.50
2023-12-18T01:16:49.529Z,73.50
2023-12-18T01:19:18.061Z,68.70
2023-12-18T01:21:46.498Z,51.10
2023-12-18T01:24:14.921Z,49.70
2023-12-18T01:26:43.371Z,42.70
2023-12-18T01:29:11.858Z,45.00
2023-12-18T01:31:40.240Z,46.90
2023-12-18T01:34:08.764Z,43.30
2023-12-18T01:36:37.091Z,46.10
2023-12-18T01:39:05.476Z,48.60
2023-12-18T01:41:33.965Z,44.70
2023-12-18T01:44:02.352Z,42.30
2023-12-18T01:46:30.883Z,38.00
2023-12-18T01:48:59.594Z,47.80
2023-12-18T01:51:29.397Z,33.60
2023-12-18T01:53:59.812Z,40.40
2023-12-18T01:56:31.879Z,44.60
2023-12-18T01:59:02.254Z,38.50
2023-12-18T02:01:31.238Z,36.50
2023-12-18T02:04:00.456Z,38.50
2023-12-18T02:06:29.304Z,92.80
2023-12-18T02:08:58.652Z,69.50
2023-12-18T02:11:27.197Z,52.50
2023-12-18T02:13:55.742Z,53.30
2023-12-18T02:16:24.280Z,43.70
2023-12-18T02:18:52.712Z,46.50
2023-12-18T02:21:22.579Z,47.20
2023-12-18T02:23:52.291Z,51.40
2023-12-18T02:26:22.130Z,41.60
2023-12-18T02:28:50.664Z,43.90
2023-12-18T02:31:20.139Z,37.50
2023-12-18T02:33:51.663Z,35.80
2023-12-18T02:36:20.581Z,41.80
2023-12-18T02:38:49.097Z,37.30
2023-12-18T02:41:17.517Z,44.20
2023-12-18T02:43:46.096Z,35.00
2023-12-18T02:46:14.547Z,34.70
2023-12-18T02:48:43.240Z,36.40
2023-12-18T02:51:11.941Z,37.70
2023-12-18T02:53:40.270Z,32.50
2023-12-18T02:56:08.634Z,34.60
2023-12-18T02:58:37.178Z,33.10
2023-12-18T03:01:05.366Z,34.10
2023-12-18T03:03:33.709Z,32.70
2023-12-18T03:06:02.263Z,41.40
2023-12-18T03:08:30.772Z,46.10
2023-12-18T03:10:59.274Z,40.70
2023-12-18T03:13:27.757Z,39.20
2023-12-18T03:15:58.413Z,37.80
2023-12-18T03:18:26.956Z,33.90
2023-12-18T03:20:55.568Z,32.10
2023-12-18T03:23:23.930Z,36.60
2023-12-18T03:25:52.445Z,31.10
2023-12-18T03:28:20.801Z,30.90
2023-12-18T03:30:49.223Z,29.90
2023-12-18T03:33:17.974Z,28.90
2023-12-18T03:35:46.796Z,36.60
2023-12-18T03:38:15.239Z,32.00
2023-12-18T03:40:43.695Z,30.90
2023-12-18T03:43:12.675Z,26.70
2023-12-18T03:45:41.094Z,27.30
2023-12-18T03:48:10.414Z,28.60
2023-12-18T03:50:39.070Z,26.60
2023-12-18T03:53:09.931Z,26.00
2023-12-18T03:55:39.549Z,26.60
2023-12-18T03:58:08.031Z,30.40
2023-12-18T04:00:36.581Z,28.40
2023-12-18T04:03:06.138Z,28.50
2023-12-18T04:05:34.866Z,24.40
2023-12-18T04:08:03.450Z,28.70
2023-12-18T04:10:31.842Z,24.30
2023-12-18T04:13:00.280Z,21.90
2023-12-18T04:15:29.460Z,24.20
2023-12-18T04:17:59.277Z,24.80
2023-12-18T04:20:27.841Z,26.60
2023-12-18T04:22:56.186Z,23.10
2023-12-18T04:25:25.922Z,25.90
2023-12-18T04:27:54.705Z,33.20
2023-12-18T04:30:23.350Z,30.30
2023-12-18T04:32:51.964Z,30.10
2023-12-18T04:35:20.527Z,28.30
2023-12-18T04:37:49.034Z,23.30
2023-12-18T04:40:18.286Z,24.90
2023-12-18T04:42:47.063Z,38.30
2023-12-18T04:45:15.865Z,30.80
2023-12-18T04:47:44.809Z,31.00
2023-12-18T04:50:14.660Z,33.30
2023-12-18T04:52:43.635Z,27.30
2023-12-18T04:55:12.429Z,25.90
2023-12-18T04:57:40.979Z,27.60
2023-12-18T05:00:09.852Z,25.80
2023-12-18T05:02:39.367Z,24.80
2023-12-18T05:05:08.285Z,29.00
2023-12-18T05:07:36.637Z,24.50
2023-12-18T05:10:05.372Z,30.50
2023-12-18T05:12:33.869Z,30.60
2023-12-18T05:15:03.952Z,27.40
2023-12-18T05:17:33.499Z,38.40
2023-12-18T05:20:01.917Z,42.90
2023-12-18T05:22:30.321Z,40.80
2023-12-18T05:24:58.729Z,36.40
2023-12-18T05:27:27.259Z,32.30
2023-12-18T05:29:55.815Z,28.90
2023-12-18T05:32:24.313Z,25.80
2023-12-18T05:34:53.001Z,25.60
2023-12-18T05:37:22.780Z,27.40
2023-12-18T05:39:51.141Z,23.60
2023-12-18T05:42:20.824Z,25.30
2023-12-18T05:44:49.247Z,30.80
2023-12-18T05:47:17.762Z,25.50
2023-12-18T05:49:46.362Z,25.50
2023-12-18T05:52:14.872Z,23.10
2023-12-18T05:54:43.294Z,27.50
2023-12-18T05:57:13.596Z,30.50
2023-12-18T05:59:42.174Z,37.90
2023-12-18T06:02:11.007Z,39.70
2023-12-18T06:04:43.217Z,31.90
2023-12-18T06:07:12.270Z,28.90
2023-12-18T06:09:41.088Z,50.80
2023-12-18T06:12:09.673Z,71.70
2023-12-18T06:14:40.591Z,53.20
2023-12-18T06:17:11.531Z,36.50
2023-12-18T06:19:40.130Z,27.70
2023-12-18T06:22:11.535Z,31.50
2023-12-18T06:24:40.757Z,37.30
2023-12-18T06:27:09.444Z,39.60
2023-12-18T06:29:37.971Z,33.70
2023-12-18T06:32:06.949Z,31.80
2023-12-18T06:34:35.768Z,33.50
2023-12-18T06:37:04.618Z,29.00
2023-12-18T06:39:33.206Z,29.80
2023-12-18T06:42:01.699Z,34.40
2023-12-18T06:44:30.170Z,26.60
2023-12-18T06:47:00.650Z,36.80
2023-12-18T06:49:29.846Z,40.70
2023-12-18T06:51:58.558Z,38.60
2023-12-18T06:54:28.686Z,66.30
2023-12-18T06:56:57.266Z,42.00
2023-12-18T06:59:25.737Z,65.00
2023-12-18T07:01:54.261Z,120.00
2023-12-18T07:04:22.781Z,117.90
2023-12-18T07:06:51.204Z,81.90
2023-12-18T07:09:20.956Z,109.20
2023-12-18T07:11:49.382Z,242.30
2023-12-18T07:14:19.461Z,78.20
2023-12-18T07:16:47.936Z,49.70
2023-12-18T07:19:17.430Z,60.70
2023-12-18T07:21:46.194Z,54.70
2023-12-18T07:24:14.753Z,102.30
2023-12-18T07:26:43.289Z,108.20
2023-12-18T07:29:11.701Z,88.80
2023-12-18T07:31:40.374Z,62.90
2023-12-18T07:34:09.104Z,54.50
2023-12-18T07:36:40.666Z,50.00
2023-12-18T07:39:10.006Z,60.40
2023-12-18T07:41:38.379Z,53.70
2023-12-18T07:44:06.644Z,46.50
2023-12-18T07:46:34.919Z,50.00
2023-12-18T07:49:04.381Z,48.40
2023-12-18T07:51:33.062Z,74.00
2023-12-18T07:54:01.645Z,89.00
2023-12-18T07:56:30.119Z,77.90
2023-12-18T07:58:58.601Z,64.50
2023-12-18T08:01:27.209Z,91.40
2023-12-18T08:03:55.784Z,54.20
2023-12-18T08:06:24.275Z,54.60
2023-12-18T08:08:52.793Z,96.10
2023-12-18T08:11:21.372Z,75.30
2023-12-18T08:13:49.818Z,44.40
2023-12-18T08:16:18.605Z,31.40
2023-12-18T08:18:48.780Z,24.90
2023-12-18T08:21:17.479Z,21.80
2023-12-18T08:23:45.888Z,22.20
2023-12-18T08:26:14.290Z,24.10
2023-12-18T08:28:46.333Z,22.40
2023-12-18T08:31:14.816Z,22.70
2023-12-18T08:33:43.501Z,21.40
2023-12-18T08:36:12.319Z,24.10
2023-12-18T08:38:40.968Z,22.30
2023-12-18T08:41:09.417Z,24.50
2023-12-18T08:43:37.868Z,63.70
2023-12-18T08:46:06.428Z,99.10
2023-12-18T08:48:35.019Z,83.10
2023-12-18T08:51:06.184Z,113.50
2023-12-18T08:53:35.486Z,105.80
2023-12-18T08:56:04.676Z,50.10
2023-12-18T08:58:33.803Z,62.80
2023-12-18T09:01:02.457Z,44.90
2023-12-18T09:03:36.398Z,69.50
2023-12-18T09:06:05.674Z,43.80
2023-12-18T09:08:40.813Z,43.60
2023-12-18T09:11:10.215Z,39.30
2023-12-18T09:13:39.366Z,33.30
2023-12-18T09:16:08.130Z,32.30
2023-12-18T09:18:36.698Z,28.20
2023-12-18T09:21:05.422Z,21.70
2023-12-18T09:23:33.821Z,24.40
2023-12-18T09:26:02.357Z,20.60
2023-12-18T09:28:34.369Z,22.50
2023-12-18T09:31:02.845Z,21.00
2023-12-18T09:33:31.495Z,21.60
2023-12-18T09:36:01.769Z,27.70
2023-12-18T09:38:30.315Z,21.10
2023-12-18T09:40:58.825Z,18.40
2023-12-18T09:43:28.522Z,13.70
2023-12-18T09:45:58.275Z,18.40
2023-12-18T09:48:27.058Z,21.20
2023-12-18T09:50:56.902Z,18.40
2023-12-18T09:53:26.176Z,16.70
2023-12-18T09:55:56.232Z,9.00
2023-12-18T09:58:25.543Z,8.70
2023-12-18T10:00:55.021Z,10.00
2023-12-18T10:03:23.653Z,7.80
2023-12-18T10:05:55.013Z,7.00
2023-12-18T10:08:23.509Z,7.00
2023-12-18T10:10:52.058Z,6.80
2023-12-18T10:13:20.321Z,5.60
2023-12-18T10:15:48.789Z,6.50
2023-12-18T10:18:20.788Z,8.80
2023-12-18T10:20:50.846Z,5.70
2023-12-18T10:23:19.311Z,9.10
2023-12-18T10:25:49.351Z,6.20
2023-12-18T10:28:18.346Z,8.00
2023-12-18T10:30:47.197Z,7.20
2023-12-18T10:33:15.749Z,7.90
2023-12-18T10:35:45.026Z,7.70
2023-12-18T10:38:20.553Z,9.20
2023-12-18T10:40:56.003Z,30.90
2023-12-18T10:43:25.346Z,26.30
2023-12-18T10:45:54.753Z,12.30
2023-12-18T10:48:26.512Z,11.00
2023-12-18T10:50:59.293Z,8.00
2023-12-18T10:53:28.890Z,10.30
2023-12-18T10:56:00.366Z,8.00
2023-12-18T10:58:30.307Z,9.20
2023-12-18T11:01:00.688Z,5.90
2023-12-18T11:03:38.228Z,9.50
2023-12-18T11:06:11.405Z,18.40
2023-12-18T11:08:42.938Z,10.70
2023-12-18T11:11:14.348Z,9.60
2023-12-18T11:14:03.426Z,12.70
2023-12-18T11:16:42.443Z,8.50
2023-12-18T11:19:39.326Z,11.60
2023-12-18T11:22:07.847Z,18.50
2023-12-18T11:24:37.724Z,12.70
2023-12-18T11:27:07.647Z,18.60
2023-12-18T11:29:38.847Z,11.10
2023-12-18T11:32:07.632Z,11.80
2023-12-18T11:34:36.135Z,16.90
2023-12-18T11:37:08.104Z,9.00
2023-12-18T11:39:41.667Z,9.10
2023-12-18T11:42:12.952Z,13.40
2023-12-18T11:44:41.470Z,23.80
2023-12-18T11:47:09.798Z,17.70
2023-12-18T11:49:38.725Z,15.40
2023-12-18T11:52:18.769Z,18.00
2023-12-18T11:54:47.381Z,13.80
2023-12-18T11:57:20.422Z,12.80
2023-12-18T11:59:49.264Z,13.10
2023-12-18T12:02:18.107Z,13.20
2023-12-18T12:04:47.465Z,14.30
2023-12-18T12:07:16.146Z,12.30
2023-12-18T12:09:45.343Z,11.20
2023-12-18T12:12:15.486Z,12.20
2023-12-18T12:14:44.083Z,13.20
2023-12-18T12:17:12.387Z,11.80
2023-12-18T12:19:40.960Z,12.10
2023-12-18T12:22:10.499Z,13.70
2023-12-18T12:24:43.752Z,11.00
2023-12-18T12:27:13.461Z,15.30
2023-12-18T12:29:44.242Z,14.20
2023-12-18T12:32:15.090Z,13.30
2023-12-18T12:34:44.300Z,14.50
2023-12-18T12:37:13.594Z,15.10
2023-12-18T12:40:01.856Z,15.20
2023-12-18T12:42:36.030Z,11.90
2023-12-18T12:45:05.677Z,16.90
2023-12-18T12:47:34.995Z,14.10
2023-12-18T12:50:08.152Z,12.70
2023-12-18T12:52:38.904Z,15.60
2023-12-18T12:55:07.505Z,16.10
2023-12-18T12:57:36.038Z,15.50
2023-12-18T13:00:09.488Z,15.00
2023-12-18T13:02:38.024Z,16.50
2023-12-18T13:05:10.488Z,18.40
2023-12-18T13:07:39.234Z,15.00
2023-12-18T13:10:08.558Z,15.70
2023-12-18T13:12:36.918Z,17.30
2023-12-18T13:15:05.749Z,12.40
2023-12-18T13:17:34.748Z,11.70
2023-12-18T13:20:12.435Z,7.90
2023-12-18T13:22:48.643Z,14.40
2023-12-18T13:25:18.483Z,12.40
2023-12-18T13:27:46.918Z,11.10
2023-12-18T13:30:15.519Z,9.70
2023-12-18T13:32:44.149Z,7.20
2023-12-18T13:35:12.703Z,11.90
2023-12-18T13:37:41.501Z,10.50
2023-12-18T13:40:10.296Z,7.40
2023-12-18T13:42:38.671Z,8.50
2023-12-18T13:45:08.784Z,9.20
2023-12-18T13:47:37.131Z,7.50
2023-12-18T13:50:06.191Z,9.70
2023-12-18T13:52:34.747Z,8.00
2023-12-18T13:55:03.256Z,6.00
2023-12-18T13:57:39.171Z,11.70
2023-12-18T14:00:14.791Z,9.50
2023-12-18T14:02:43.132Z,8.10
2023-12-18T14:05:11.446Z,9.20
2023-12-18T14:07:40.067Z,7.20
2023-12-18T14:10:10.409Z,8.40
2023-12-18T14:12:39.247Z,7.80
2023-12-18T14:15:07.926Z,10.10
2023-12-18T14:17:36.465Z,8.50
2023-12-18T14:20:06.612Z,8.30
2023-12-18T14:22:35.239Z,9.20
2023-12-18T14:25:07.355Z,10.90
2023-12-18T14:27:36.072Z,10.80
2023-12-18T14:30:05.983Z,17.60
2023-12-18T14:32:34.333Z,14.80
2023-12-18T14:35:03.565Z,15.90
2023-12-18T14:37:32.076Z,13.80
2023-12-18T14:40:04.320Z,13.70
2023-12-18T14:42:32.876Z,14.40
2023-12-18T14:45:01.257Z,14.20
2023-12-18T14:47:29.665Z,12.10
2023-12-18T14:49:58.158Z,26.10
2023-12-18T14:52:26.504Z,25.80
2023-12-18T14:54:55.839Z,20.40
2023-12-18T14:57:24.556Z,15.40
2023-12-18T14:59:53.622Z,18.30
2023-12-18T15:02:22.550Z,34.80
2023-12-18T15:04:51.399Z,72.70
2023-12-18T15:07:20.049Z,138.90
2023-12-18T15:09:48.384Z,140.90
2023-12-18T15:12:16.939Z,70.90
2023-12-18T15:14:45.316Z,57.70
2023-12-18T15:17:14.342Z,96.40
2023-12-18T15:19:43.162Z,57.60
2023-12-18T15:22:13.294Z,30.60
2023-12-18T15:24:41.792Z,24.50
2023-12-18T15:27:12.436Z,24.70
2023-12-18T15:29:41.140Z,23.50
2023-12-18T15:32:11.282Z,33.20
2023-12-18T15:34:39.850Z,23.90
2023-12-18T15:37:09.065Z,18.90
2023-12-18T15:39:37.503Z,17.20
2023-12-18T15:42:06.501Z,21.40
2023-12-18T15:44:35.948Z,32.90
2023-12-18T15:47:05.221Z,20.70
2023-12-18T15:49:33.769Z,24.10
2023-12-18T15:52:03.072Z,22.00
2023-12-18T15:54:31.516Z,23.00
2023-12-18T15:57:00.300Z,19.70
2023-12-18T15:59:28.773Z,16.80
2023-12-18T16:01:57.139Z,14.90
2023-12-18T16:04:25.710Z,14.10
2023-12-18T16:06:54.821Z,18.70
2023-12-18T16:09:23.166Z,17.20
2023-12-18T16:11:53.933Z,18.30
2023-12-18T16:14:22.468Z,17.80
2023-12-18T16:16:52.416Z,18.80
2023-12-18T16:19:21.273Z,21.70
2023-12-18T16:21:50.788Z,20.70
2023-12-18T16:24:20.228Z,25.20
2023-12-18T16:26:48.696Z,25.50
2023-12-18T16:29:17.814Z,22.40
2023-12-18T16:31:49.698Z,21.50
2023-12-18T16:34:18.340Z,23.40
2023-12-18T16:36:46.718Z,24.30
2023-12-18T16:39:15.779Z,26.50
2023-12-18T16:41:44.332Z,22.70
2023-12-18T16:44:15.516Z,25.10
2023-12-18T16:46:45.669Z,24.80
2023-12-18T16:49:14.856Z,24.20
2023-12-18T16:51:43.595Z,25.70
2023-12-18T16:54:12.734Z,29.10
2023-12-18T16:56:41.276Z,29.00
2023-12-18T16:59:16.588Z,29.90
2023-12-18T17:01:51.787Z,29.80
2023-12-18T17:04:20.225Z,32.10
2023-12-18T17:06:48.893Z,27.20
2023-12-18T17:09:22.456Z,26.40
2023-12-18T17:11:53.237Z,29.50
2023-12-18T17:14:21.657Z,38.50
2023-12-18T17:16:54.652Z,36.90
2023-12-18T17:19:23.282Z,47.50
2023-12-18T17:21:51.968Z,55.70
2023-12-18T17:24:21.128Z,46.60
2023-12-18T17:26:49.597Z,49.70
2023-12-18T17:29:18.491Z,49.00
2023-12-18T17:31:48.113Z,50.90
2023-12-18T17:34:19.364Z,47.00
2023-12-18T17:36:48.430Z,50.10
2023-12-18T17:39:19.139Z,56.20
2023-12-18T17:41:52.759Z,58.40
2023-12-18T17:44:21.455Z,54.60
2023-12-18T17:46:49.715Z,45.50
2023-12-18T17:49:18.904Z,54.00
2023-12-18T17:51:47.719Z,58.40
2023-12-18T17:54:16.391Z,76.90
2023-12-18T17:56:44.768Z,90.50
2023-12-18T17:59:16.083Z,79.60
2023-12-18T18:01:44.528Z,67.50
2023-12-18T18:04:13.158Z,55.30
2023-12-18T18:06:42.424Z,104.90
2023-12-18T18:09:14.240Z,107.60
2023-12-18T18:11:42.636Z,146.50
2023-12-18T18:14:11.181Z,127.10
2023-12-18T18:16:42.990Z,117.00
2023-12-18T18:19:20.634Z,72.80
2023-12-18T18:21:51.962Z,65.10
2023-12-18T18:24:22.124Z,63.90
2023-12-18T18:27:08.212Z,62.80
2023-12-18T18:29:39.537Z,66.50
2023-12-18T18:32:10.972Z,47.60
2023-12-18T18:34:40.942Z,63.00
2023-12-18T18:37:09.579Z,64.50
2023-12-18T18:39:41.740Z,61.80
2023-12-18T18:44:45.672Z,45.80
2023-12-18T18:47:14.116Z,42.30
2023-12-18T18:49:45.316Z,34.70
2023-12-18T18:52:14.220Z,38.10
2023-12-18T18:54:43.408Z,38.30
2023-12-18T18:57:13.755Z,35.40
2023-12-18T18:59:43.119Z,38.50
2023-12-18T19:02:11.571Z,36.70
2023-12-18T19:04:41.554Z,38.40
2023-12-18T19:07:09.956Z,53.50
2023-12-18T19:09:39.191Z,46.40
2023-12-18T19:12:11.095Z,47.80
2023-12-18T19:14:39.489Z,44.40
2023-12-18T19:17:08.446Z,44.30
2023-12-18T19:19:36.969Z,51.70
2023-12-18T19:22:06.649Z,48.00
2023-12-18T19:24:35.008Z,55.20
2023-12-18T19:27:11.956Z,47.90
2023-12-18T19:29:41.911Z,43.30
2023-12-18T19:32:10.430Z,58.30
2023-12-18T19:34:41.561Z,61.70
2023-12-18T19:37:09.992Z,65.50
2023-12-18T19:39:38.529Z,65.60
2023-12-18T19:42:07.990Z,64.60
2023-12-18T19:44:36.716Z,58.20
2023-12-18T19:47:05.315Z,54.30
2023-12-18T19:49:34.299Z,49.60
2023-12-18T19:52:02.847Z,55.60
2023-12-18T19:54:34.335Z,59.70
2023-12-18T19:57:03.501Z,61.30
2023-12-18T19:59:32.209Z,75.10
2023-12-18T20:02:01.156Z,73.80
2023-12-18T20:04:29.944Z,95.20
2023-12-18T20:07:05.947Z,107.80
2023-12-18T20:09:34.562Z,86.30
2023-12-18T20:12:06.893Z,71.30
2023-12-18T20:14:35.163Z,67.10
2023-12-18T20:17:03.917Z,55.00
2023-12-18T20:19:32.435Z,60.00
2023-12-18T20:22:01.121Z,56.20
2023-12-18T20:24:29.594Z,56.00
2023-12-18T20:26:58.385Z,53.20
2023-12-18T20:29:26.607Z,58.60
2023-12-18T20:31:54.962Z,93.20
2023-12-18T20:34:23.460Z,118.20
2023-12-18T20:36:54.377Z,110.30
2023-12-18T20:39:22.941Z,99.30
2023-12-18T20:41:51.629Z,103.20
2023-12-18T20:44:23.162Z,109.30
2023-12-18T20:46:55.770Z,119.40
2023-12-18T20:49:29.179Z,100.20
2023-12-18T20:51:58.159Z,93.90
2023-12-18T20:54:26.658Z,85.10
2023-12-18T20:56:55.085Z,83.50
2023-12-18T20:59:23.374Z,77.60
2023-12-18T21:01:51.790Z,75.40
2023-12-18T21:04:20.335Z,75.90
2023-12-18T21:06:49.633Z,79.30
2023-12-18T21:09:18.179Z,75.90
2023-12-18T21:11:46.582Z,75.10
2023-12-18T21:14:22.944Z,77.70
2023-12-18T21:16:58.784Z,71.40
2023-12-18T21:19:27.112Z,75.40
2023-12-18T21:21:56.907Z,80.50
2023-12-18T21:24:25.744Z,73.80
2023-12-18T21:26:54.137Z,82.70
2023-12-18T21:29:22.630Z,83.20
2023-12-18T21:31:51.151Z,75.80
2023-12-18T21:34:20.719Z,73.20
2023-12-18T21:36:51.423Z,81.40
2023-12-18T21:39:21.616Z,76.80
2023-12-18T21:41:50.029Z,75.40
2023-12-18T21:44:18.371Z,74.30
2023-12-18T21:46:46.780Z,75.50
2023-12-18T21:49:15.274Z,75.10
2023-12-18T21:51:44.466Z,81.80
2023-12-18T21:54:13.102Z,75.80
2023-12-18T21:56:44.961Z,67.40
2023-12-18T21:59:13.286Z,88.10
2023-12-18T22:01:41.675Z,80.00
2023-12-18T22:04:10.366Z,79.70
2023-12-18T22:06:38.794Z,86.80
2023-12-18T22:09:07.669Z,91.00
2023-12-18T22:11:35.941Z,93.40
2023-12-18T22:14:06.136Z,89.70
2023-12-18T22:16:36.011Z,72.70
2023-12-18T22:19:05.277Z,86.20
2023-12-18T22:21:33.713Z,82.60
2023-12-18T22:24:02.399Z,72.20
2023-12-18T22:26:30.729Z,75.10
2023-12-18T22:28:59.090Z,83.20
2023-12-18T22:31:33.149Z,70.60
2023-12-18T22:36:31.181Z,72.00
2023-12-18T22:39:05.665Z,62.90
2023-12-18T22:41:41.684Z,64.60
2023-12-18T22:44:10.323Z,64.70
2023-12-18T22:46:39.831Z,61.40
2023-12-18T22:49:09.122Z,68.70
2023-12-18T22:51:37.679Z,66.50
2023-12-18T22:54:06.082Z,65.00
2023-12-18T22:56:34.475Z,59.90
2023-12-18T22:59:03.279Z,58.80
2023-12-18T23:01:32.111Z,62.30
2023-12-18T23:04:02.147Z,60.60
2023-12-18T23:06:33.593Z,58.10
2023-12-18T23:09:02.440Z,65.00
2023-12-18T23:11:31.449Z,64.60
2023-12-18T23:13:59.875Z,71.60
2023-12-18T23:16:28.365Z,70.80
2023-12-18T23:18:57.003Z,64.50
2023-12-18T23:21:25.503Z,69.90
2023-12-18T23:24:00.079Z,70.60
2023-12-18T23:26:28.863Z,68.50
2023-12-18T23:28:57.314Z,67.60
2023-12-18T23:31:25.877Z,68.90
2023-12-18T23:33:56.373Z,65.80
2023-12-18T23:36:24.960Z,68.80
2023-12-18T23:38:53.373Z,68.00
2023-12-18T23:41:23.356Z,64.50
2023-12-18T23:43:52.129Z,68.30
2023-12-18T23:46:20.504Z,65.90
2023-12-18T23:48:48.927Z,65.30
2023-12-18T23:53:52.393Z,71.30
2023-12-18T23:56:22.333Z,73.50
2023-12-18T23:58:50.754Z,68.40
